createdAt,value
2022-08-26T03:35:36.953Z,0.20
2022-08-26T03:40:32.115Z,0.30
2022-08-26T03:45:23.296Z,0.17
2022-08-26T03:50:22.791Z,0.20
2022-08-26T03:55:16.453Z,0.20
2022-08-26T04:00:15.344Z,0.20
2022-08-26T04:05:09.263Z,0.20
2022-08-26T04:09:59.601Z,0.20
2022-08-26T04:14:52.419Z,0.20
2022-08-26T04:19:49.300Z,0.20
2022-08-26T04:24:42.124Z,0.23
2022-08-26T04:29:34.808Z,0.10
2022-08-26T04:34:28.483Z,0.30
2022-08-26T04:39:22.367Z,0.30
2022-08-26T04:44:12.732Z,0.20
2022-08-26T04:49:02.457Z,0.20
2022-08-26T04:53:54.932Z,0.30
2022-08-26T04:58:47.695Z,0.43
2022-08-26T05:03:40.823Z,0.17
2022-08-26T05:08:31.795Z,0.20
2022-08-26T05:13:23.290Z,0.20
2022-08-26T05:18:17.578Z,0.20
2022-08-26T05:23:10.207Z,0.20
2022-08-26T05:28:01.440Z,0.30
2022-08-26T05:32:55.245Z,0.20
2022-08-26T05:37:50.381Z,0.25
2022-08-26T05:42:46.477Z,0.35
2022-08-26T05:47:39.449Z,0.20
2022-08-26T05:52:29.556Z,0.20
2022-08-26T05:57:23.231Z,0.37
2022-08-26T06:02:13.399Z,0.30
2022-08-26T06:07:06.356Z,0.22
2022-08-26T06:12:01.933Z,0.20
2022-08-26T06:16:57.440Z,0.30
2022-08-26T06:21:55.090Z,0.35
2022-08-26T06:26:51.104Z,0.20
2022-08-26T06:31:43.249Z,0.30
2022-08-26T06:36:46.092Z,0.40
2022-08-26T06:41:43.363Z,0.30
2022-08-26T06:46:39.718Z,0.30
2022-08-26T06:51:34.865Z,0.40
2022-08-26T06:56:30.098Z,0.20
2022-08-26T07:01:22.043Z,0.50
2022-08-26T07:06:12.006Z,0.30
2022-08-26T07:11:04.281Z,0.10
2022-08-26T07:15:58.199Z,0.30
2022-08-26T07:20:52.936Z,0.20
2022-08-26T07:25:45.921Z,0.20
2022-08-26T07:30:48.724Z,0.20
2022-08-26T07:35:43.741Z,0.30
2022-08-26T07:40:36.836Z,0.20
2022-08-26T07:45:27.961Z,0.15
2022-08-26T07:50:18.052Z,0.20
2022-08-26T07:55:11.610Z,0.15
2022-08-26T08:00:02.000Z,0.30
2022-08-26T08:05:02.595Z,0.30
2022-08-26T08:09:52.602Z,0.30
2022-08-26T08:14:49.078Z,0.30
2022-08-26T08:19:39.227Z,0.20
2022-08-26T08:24:30.114Z,0.20
2022-08-26T08:29:19.865Z,0.20
2022-08-26T08:34:12.650Z,0.25
2022-08-26T08:39:02.707Z,0.20
2022-08-26T08:43:54.643Z,0.10
2022-08-26T08:48:48.809Z,0.13
2022-08-26T08:53:45.008Z,0.10
2022-08-26T08:58:52.358Z,0.10
2022-08-26T09:03:55.148Z,0.10
2022-08-26T09:08:51.204Z,0.10
2022-08-26T09:13:42.834Z,0.10
2022-08-26T09:18:59.625Z,0.10
2022-08-26T09:23:52.387Z,0.20
2022-08-26T09:28:45.834Z,0.30
2022-08-26T09:33:36.237Z,0.10
2022-08-26T09:38:29.210Z,0.17
2022-08-26T09:43:23.222Z,0.10
2022-08-26T09:48:13.448Z,0.20
2022-08-26T09:53:12.899Z,0.20
2022-08-26T09:58:07.722Z,0.20
2022-08-26T10:03:04.776Z,0.20
2022-08-26T10:07:55.498Z,0.40
2022-08-26T10:12:53.420Z,0.13
2022-08-26T10:17:47.710Z,0.20
2022-08-26T10:22:45.891Z,0.20
2022-08-26T10:28:03.984Z,0.30
2022-08-26T10:32:58.282Z,0.10
2022-08-26T10:37:54.310Z,0.20
2022-08-26T10:42:49.001Z,0.20
2022-08-26T10:47:45.184Z,0.60
2022-08-26T10:53:01.510Z,0.30
2022-08-26T10:58:04.972Z,0.28
2022-08-26T11:03:04.597Z,0.30
2022-08-26T11:08:31.592Z,0.40
2022-08-26T11:13:22.533Z,0.28
2022-08-26T11:18:14.731Z,0.30
2022-08-26T11:23:34.843Z,0.38
2022-08-26T11:28:40.280Z,0.52
2022-08-26T11:34:02.778Z,0.30
2022-08-26T11:38:57.117Z,0.30
2022-08-26T11:43:55.217Z,0.30
2022-08-26T11:48:46.753Z,0.30
2022-08-26T11:53:40.052Z,0.30
2022-08-26T11:58:33.170Z,0.28
2022-08-26T12:03:33.160Z,0.40
2022-08-26T12:08:28.807Z,0.30
2022-08-26T12:13:27.332Z,0.50
2022-08-26T12:18:28.989Z,0.20
2022-08-26T12:23:43.273Z,0.30
2022-08-26T12:28:36.322Z,0.40
2022-08-26T12:33:32.107Z,0.37
2022-08-26T12:38:22.872Z,0.22
2022-08-26T12:43:18.836Z,0.30
2022-08-26T12:48:15.398Z,0.40
2022-08-26T13:09:06.761Z,0.43
2022-08-26T13:19:26.701Z,0.40
2022-08-26T13:24:33.801Z,0.35
2022-08-26T13:30:03.195Z,0.25
2022-08-26T13:34:58.268Z,0.20
2022-08-26T13:39:53.698Z,0.20
2022-08-26T13:44:55.633Z,0.30
2022-08-26T13:49:47.995Z,0.30
2022-08-26T13:54:38.591Z,0.20
2022-08-26T13:59:28.666Z,0.70
2022-08-26T14:04:27.277Z,0.30
2022-08-26T14:09:18.853Z,0.30
2022-08-26T14:14:08.675Z,0.40
2022-08-26T14:19:01.237Z,0.30
2022-08-26T14:23:55.919Z,0.30
2022-08-26T14:28:48.789Z,0.30
2022-08-26T14:33:42.640Z,0.37
2022-08-26T14:38:33.329Z,0.20
2022-08-26T14:43:26.310Z,0.27
2022-08-26T14:48:16.386Z,0.47
2022-08-26T14:53:18.542Z,0.30
2022-08-26T14:58:09.528Z,0.43
2022-08-26T15:03:02.154Z,0.30
2022-08-26T15:07:51.894Z,0.30
2022-08-26T15:12:41.816Z,0.40
2022-08-26T15:17:31.720Z,0.30
2022-08-26T15:22:24.064Z,0.30
2022-08-26T15:27:16.443Z,0.40
2022-08-26T15:32:06.910Z,0.20
2022-08-26T15:36:56.770Z,0.30
2022-08-26T15:41:49.592Z,0.20
2022-08-26T15:46:39.549Z,0.30
2022-08-26T15:51:33.335Z,0.30
2022-08-26T15:56:22.964Z,0.45
2022-08-26T16:01:15.299Z,0.30
2022-08-26T16:06:18.603Z,0.30
2022-08-26T16:11:08.655Z,0.30
2022-08-26T16:15:59.545Z,0.20
2022-08-26T16:21:12.794Z,0.30
2022-08-26T16:26:10.800Z,0.43
2022-08-26T16:31:00.797Z,0.40
2022-08-26T16:35:53.339Z,0.50
2022-08-26T16:40:43.145Z,0.80
2022-08-26T16:45:39.146Z,0.50
2022-08-26T16:50:32.375Z,0.40
2022-08-26T16:55:25.732Z,0.47
2022-08-26T17:00:24.542Z,0.30
2022-08-26T17:05:14.709Z,0.60
2022-08-26T17:10:04.497Z,0.40
2022-08-26T17:14:56.885Z,0.30
2022-08-26T17:19:47.070Z,0.65
2022-08-26T17:24:37.804Z,0.40
2022-08-26T17:29:27.521Z,0.25
2022-08-26T17:34:20.282Z,0.43
2022-08-26T17:39:11.203Z,0.30
2022-08-26T17:44:00.945Z,0.45
2022-08-26T17:48:50.743Z,0.40
2022-08-26T17:53:43.968Z,0.40
2022-08-26T17:58:33.645Z,0.38
2022-08-26T18:03:24.283Z,0.40
2022-08-26T18:08:13.911Z,0.50
2022-08-26T18:13:06.649Z,0.30
2022-08-26T18:17:56.304Z,0.40
2022-08-26T18:22:48.929Z,0.50
2022-08-26T18:27:40.514Z,0.50
2022-08-26T18:32:33.886Z,0.60
2022-08-26T18:37:25.802Z,0.70
2022-08-26T18:42:19.059Z,0.50
2022-08-26T18:47:11.322Z,0.50
2022-08-26T18:52:03.559Z,0.40
2022-08-26T18:56:53.248Z,0.47
2022-08-26T19:01:46.444Z,0.60
2022-08-26T19:06:40.597Z,0.40
2022-08-26T19:11:37.604Z,0.50
2022-08-26T19:16:33.459Z,0.68
2022-08-26T19:21:33.181Z,0.60
2022-08-26T19:26:24.330Z,0.50
2022-08-26T19:31:17.014Z,0.50
2022-08-26T19:36:11.426Z,0.55
2022-08-26T19:41:04.023Z,0.60
2022-08-26T19:45:53.767Z,0.60
2022-08-26T19:50:49.015Z,0.60
2022-08-26T19:55:38.891Z,0.70
2022-08-26T20:00:31.906Z,0.50
2022-08-26T20:05:24.128Z,0.70
2022-08-26T20:10:18.439Z,0.75
2022-08-26T20:15:13.108Z,0.63
2022-08-26T20:20:32.974Z,0.80
2022-08-26T20:25:26.754Z,0.63
2022-08-26T20:30:17.185Z,0.90
2022-08-26T20:35:09.118Z,0.73
2022-08-26T20:39:59.513Z,0.60
2022-08-26T20:44:54.666Z,0.85
2022-08-26T20:49:44.756Z,1.10
2022-08-26T20:54:34.429Z,2.50
2022-08-26T20:59:24.422Z,3.00
2022-08-26T21:04:19.007Z,2.50
2022-08-26T21:09:10.692Z,2.00
2022-08-26T21:14:06.743Z,1.95
2022-08-26T21:18:57.684Z,6.40
2022-08-26T21:23:52.881Z,2.83
2022-08-26T21:28:44.887Z,1.52
